Time;durP1;ratioP1;P1;durP2;ratioP2;P2;SDS_P1;SDS_P2;PMS_P1;PMS_P2;Temp;Humidity;BMP_temperature;BMP_pressure;BME280_temperature;BME280_humidity;BME280_pressure;Samples;Min_cycle;Max_cycle;Signal;HPM_P1;HPM_P2
2021/05/29 00:01:00;;;;;;;15.47;13.53;;;8.20;99.90;;;;;;5047137;28;20605;-67
2021/05/29 00:03:27;;;;;;;14.00;12.60;;;8.10;99.90;;;;;;5048445;28;20951;-68
2021/05/29 00:05:53;;;;;;;15.63;14.03;;;8.10;99.90;;;;;;5047527;28;20445;-68
2021/05/29 00:08:19;;;;;;;16.00;14.27;;;8.00;99.90;;;;;;5049681;28;20431;-67
2021/05/29 00:10:50;;;;;;;16.30;14.63;;;7.90;99.90;;;;;;5048349;28;20434;-68
2021/05/29 00:13:17;;;;;;;15.87;14.17;;;7.80;99.90;;;;;;5035762;28;20469;-67
2021/05/29 00:15:43;;;;;;;15.73;14.23;;;7.80;99.90;;;;;;5048906;28;21032;-67
2021/05/29 00:18:09;;;;;;;15.93;14.30;;;7.70;99.90;;;;;;5042901;28;20446;-68
2021/05/29 00:20:39;;;;;;;14.43;12.43;;;7.60;99.90;;;;;;5048759;28;20243;-67
2021/05/29 00:23:04;;;;;;;18.33;12.63;;;7.60;99.90;;;;;;5047306;28;20502;-67
2021/05/29 00:25:30;;;;;;;15.50;12.90;;;7.60;99.90;;;;;;5048030;28;20518;-67
2021/05/29 00:27:55;;;;;;;17.70;13.43;;;7.60;99.90;;;;;;5044786;28;20312;-67
2021/05/29 00:30:21;;;;;;;19.30;12.67;;;7.60;99.90;;;;;;5047199;28;20184;-67
2021/05/29 00:32:47;;;;;;;15.60;12.20;;;7.60;99.90;;;;;;5047679;28;20193;-67
2021/05/29 00:35:13;;;;;;;30.07;14.03;;;7.60;99.90;;;;;;5048364;28;20459;-67
2021/05/29 00:37:38;;;;;;;16.07;12.93;;;7.60;99.90;;;;;;5048376;28;20184;-67
2021/05/29 00:40:07;;;;;;;20.10;13.93;;;7.60;99.90;;;;;;5049082;28;20242;-66
2021/05/29 00:42:32;;;;;;;22.43;14.30;;;7.60;99.90;;;;;;5048202;28;20216;-67
2021/05/29 00:44:58;;;;;;;38.90;15.50;;;7.60;99.90;;;;;;5048360;28;20434;-64
2021/05/29 00:47:28;;;;;;;33.63;14.70;;;7.60;99.90;;;;;;5047774;28;20253;-68
2021/05/29 00:49:57;;;;;;;28.57;14.57;;;7.50;99.90;;;;;;5051067;28;20262;-68
2021/05/29 00:52:23;;;;;;;27.30;15.57;;;7.50;99.90;;;;;;5050773;28;20951;-67
2021/05/29 00:54:50;;;;;;;23.50;13.90;;;7.50;99.90;;;;;;5054789;28;20466;-68
2021/05/29 00:57:17;;;;;;;20.27;14.93;;;7.50;99.90;;;;;;5050511;28;20438;-66
2021/05/29 00:59:43;;;;;;;29.53;14.23;;;7.50;99.90;;;;;;5051384;28;20572;-67
2021/05/29 01:02:11;;;;;;;26.13;15.30;;;7.50;99.90;;;;;;5051129;28;20473;-66
2021/05/29 01:04:37;;;;;;;30.70;16.00;;;7.50;99.90;;;;;;5050960;28;20437;-67
2021/05/29 01:07:07;;;;;;;33.90;16.33;;;7.40;99.90;;;;;;5051866;28;20638;-67
2021/05/29 01:09:33;;;;;;;48.73;17.03;;;7.30;99.90;;;;;;5051233;28;20437;-67
2021/05/29 01:11:59;;;;;;;53.13;17.37;;;7.20;99.90;;;;;;5040190;28;20473;-58
2021/05/29 01:14:25;;;;;;;66.43;18.50;;;7.10;99.90;;;;;;5055385;28;20440;-48
2021/05/29 01:16:55;;;;;;;56.35;17.92;;;7.10;99.90;;;;;;5052429;28;20652;-50
2021/05/29 01:19:20;;;;;;;46.57;17.63;;;7.00;99.90;;;;;;5050638;28;20194;-48
2021/05/29 01:21:46;;;;;;;47.80;17.93;;;7.10;99.90;;;;;;5051141;28;20470;-52
2021/05/29 01:24:12;;;;;;;50.35;17.52;;;7.10;99.90;;;;;;5050110;28;20191;-51
2021/05/29 01:26:38;;;;;;;45.60;16.97;;;7.10;99.90;;;;;;5051634;28;20194;-48
2021/05/29 01:29:03;;;;;;;32.37;16.67;;;7.20;99.90;;;;;;5049760;28;20191;-50
2021/05/29 01:31:33;;;;;;;57.87;17.80;;;7.20;99.90;;;;;;5051969;28;20201;-49
2021/05/29 01:34:00;;;;;;;54.10;17.90;;;7.20;99.90;;;;;;5050941;28;20688;-48
2021/05/29 01:36:27;;;;;;;40.42;16.65;;;7.10;99.90;;;;;;5051081;28;20467;-49
2021/05/29 01:38:53;;;;;;;63.33;17.85;;;7.10;99.90;;;;;;5050481;28;20566;-52
2021/05/29 01:41:21;;;;;;;68.13;18.67;;;7.20;99.90;;;;;;5050072;28;20338;-50
2021/05/29 01:43:49;;;;;;;62.28;18.75;;;7.10;99.90;;;;;;5050613;28;20465;-49
2021/05/29 01:46:18;;;;;;;39.47;17.08;;;7.10;99.90;;;;;;5049843;28;20183;-50
2021/05/29 01:48:46;;;;;;;32.33;15.98;;;7.00;99.90;;;;;;5050057;28;20275;-49
2021/05/29 01:51:17;;;;;;;36.33;16.65;;;7.10;99.90;;;;;;5049565;28;20192;-48
2021/05/29 01:53:43;;;;;;;41.67;16.50;;;7.00;99.90;;;;;;5049940;28;20223;-52
2021/05/29 01:56:10;;;;;;;41.80;16.77;;;7.00;99.90;;;;;;5061309;28;20568;-48
2021/05/29 01:58:37;;;;;;;44.88;16.45;;;6.90;99.90;;;;;;5053340;28;20183;-49
2021/05/29 02:01:04;;;;;;;28.52;15.30;;;6.90;99.90;;;;;;5051037;28;20240;-52
2021/05/29 02:03:30;;;;;;;63.15;16.83;;;6.90;99.90;;;;;;5048982;28;20228;-48
2021/05/29 02:05:56;;;;;;;49.73;17.47;;;6.90;99.90;;;;;;5050937;28;20192;-47
2021/05/29 02:08:22;;;;;;;36.40;17.23;;;6.90;99.90;;;;;;5049693;28;20203;-48
2021/05/29 02:10:48;;;;;;;56.67;18.23;;;7.00;99.90;;;;;;5050464;28;20186;-49
2021/05/29 02:13:34;;;;;;;49.72;15.90;;;6.90;99.90;;;;;;5050258;28;20537;-46
2021/05/29 02:16:01;;;;;;;79.72;17.25;;;6.90;99.90;;;;;;5049207;28;20196;-49
2021/05/29 02:18:27;;;;;;;51.80;18.10;;;6.80;99.90;;;;;;5049064;28;20216;-51
2021/05/29 02:20:55;;;;;;;33.13;15.77;;;6.80;99.90;;;;;;5050796;28;20253;-51
2021/05/29 02:23:29;;;;;;;45.42;16.35;;;6.80;99.90;;;;;;5048186;28;20205;-46
2021/05/29 02:26:04;;;;;;;37.30;15.15;;;6.90;99.90;;;;;;5050596;28;20650;-46
2021/05/29 02:28:35;;;;;;;31.75;15.30;;;6.90;99.90;;;;;;5048700;28;20184;-45
2021/05/29 02:31:01;;;;;;;28.73;16.02;;;6.90;99.90;;;;;;5050998;28;20191;-47
2021/05/29 02:33:27;;;;;;;29.50;16.47;;;6.90;99.90;;;;;;5049615;28;20177;-51
2021/05/29 02:35:53;;;;;;;32.10;17.03;;;6.90;99.90;;;;;;5050191;28;20499;-49
2021/05/29 02:38:19;;;;;;;25.70;16.60;;;6.90;99.90;;;;;;5048266;28;20225;-46
2021/05/29 02:40:45;;;;;;;33.47;15.90;;;6.90;99.90;;;;;;5050406;28;20826;-48
2021/05/29 02:43:10;;;;;;;41.00;16.10;;;7.00;99.90;;;;;;5048569;28;20665;-49
2021/05/29 02:45:39;;;;;;;59.87;17.13;;;7.00;99.90;;;;;;5049389;28;20217;-48
2021/05/29 02:48:06;;;;;;;41.80;16.40;;;7.00;99.90;;;;;;5048440;28;20641;-45
2021/05/29 02:50:31;;;;;;;32.42;16.00;;;7.00;99.90;;;;;;5048695;28;20451;-51
2021/05/29 02:52:57;;;;;;;30.37;15.70;;;7.00;99.90;;;;;;5047875;28;20697;-47
2021/05/29 02:55:23;;;;;;;48.57;17.23;;;7.00;99.90;;;;;;5048769;28;20190;-47
2021/05/29 02:57:54;;;;;;;50.90;17.67;;;7.00;99.90;;;;;;5047567;28;20183;-48
2021/05/29 03:00:22;;;;;;;51.97;17.43;;;7.00;99.90;;;;;;5048409;28;20445;-48
2021/05/29 03:02:48;;;;;;;42.93;16.77;;;7.00;99.90;;;;;;5048020;28;20471;-46
2021/05/29 03:05:14;;;;;;;35.30;15.83;;;7.00;99.90;;;;;;5048768;28;20481;-48
2021/05/29 03:07:39;;;;;;;34.37;13.47;;;7.00;99.90;;;;;;5048937;28;20264;-47
2021/05/29 03:10:07;;;;;;;27.50;14.13;;;7.10;99.90;;;;;;5044679;28;21207;-50
2021/05/29 03:12:37;;;;;;;25.83;14.13;;;7.00;99.90;;;;;;5048744;28;20279;-48
2021/05/29 03:15:08;;;;;;;23.23;13.00;;;7.00;99.90;;;;;;5047991;28;20444;-47
2021/05/29 03:17:34;;;;;;;40.80;14.90;;;6.90;99.90;;;;;;5049711;28;20456;-50
2021/05/29 03:19:59;;;;;;;34.97;15.67;;;6.90;99.90;;;;;;5048802;28;20518;-46
2021/05/29 03:22:25;;;;;;;21.60;13.87;;;6.90;99.90;;;;;;5042475;28;20208;-49
2021/05/29 03:24:51;;;;;;;37.97;17.00;;;6.90;99.90;;;;;;5043432;28;20276;-49
2021/05/29 03:27:18;;;;;;;26.33;13.13;;;7.00;99.90;;;;;;5047221;28;20182;-48
2021/05/29 03:29:44;;;;;;;33.07;15.10;;;7.00;99.90;;;;;;5048954;28;20225;-49
2021/05/29 03:32:10;;;;;;;20.33;12.77;;;7.00;99.90;;;;;;5048310;28;20985;-45
2021/05/29 03:34:36;;;;;;;50.87;15.30;;;7.10;99.90;;;;;;5048317;28;20451;-47
2021/05/29 03:37:02;;;;;;;35.00;14.00;;;7.00;99.90;;;;;;5047706;28;20481;-50
2021/05/29 03:39:27;;;;;;;32.43;13.60;;;6.90;99.90;;;;;;5049130;28;20246;-47
2021/05/29 03:41:53;;;;;;;54.50;15.17;;;6.90;99.90;;;;;;5046040;28;20458;-47
2021/05/29 03:44:18;;;;;;;34.53;12.60;;;6.90;99.90;;;;;;5048984;28;20673;-51
2021/05/29 03:46:44;;;;;;;33.37;13.70;;;6.90;99.90;;;;;;5047831;28;20180;-50
2021/05/29 03:49:09;;;;;;;37.60;15.63;;;7.00;99.90;;;;;;5048272;28;20209;-47
2021/05/29 03:51:35;;;;;;;22.40;14.03;;;6.90;99.90;;;;;;5048483;28;20219;-47
2021/05/29 03:54:00;;;;;;;35.30;14.13;;;6.90;99.90;;;;;;5048099;28;20255;-50
2021/05/29 03:56:26;;;;;;;22.40;12.87;;;7.00;99.90;;;;;;5045736;28;20194;-48
2021/05/29 03:58:51;;;;;;;43.03;13.40;;;7.00;99.90;;;;;;5045772;28;20641;-50
2021/05/29 04:01:17;;;;;;;33.70;13.23;;;6.90;99.90;;;;;;5048609;28;20199;-46
2021/05/29 04:03:43;;;;;;;19.40;12.13;;;6.80;99.90;;;;;;5046479;28;20247;-46
2021/05/29 04:06:08;;;;;;;33.13;12.97;;;6.80;99.90;;;;;;5047532;28;20195;-49
2021/05/29 04:08:34;;;;;;;15.93;12.13;;;6.80;99.90;;;;;;5048750;28;20183;-46
2021/05/29 04:10:59;;;;;;;16.07;12.00;;;6.80;99.90;;;;;;5048313;28;20192;-46
2021/05/29 04:13:25;;;;;;;14.43;11.33;;;6.80;99.90;;;;;;5047635;28;20190;-49
2021/05/29 04:15:50;;;;;;;15.43;11.40;;;6.90;99.90;;;;;;5047818;28;20605;-47
2021/05/29 04:18:16;;;;;;;14.20;11.87;;;6.90;99.90;;;;;;5045087;28;20699;-45
2021/05/29 04:20:41;;;;;;;14.03;11.23;;;7.00;99.90;;;;;;5040957;28;20513;-47
2021/05/29 04:23:07;;;;;;;15.17;12.77;;;7.10;99.90;;;;;;5050722;28;20214;-47
2021/05/29 04:25:32;;;;;;;19.40;12.47;;;7.10;99.90;;;;;;5051784;28;20187;-48
2021/05/29 04:27:59;;;;;;;17.40;13.27;;;7.20;99.90;;;;;;5052426;28;20188;-50
2021/05/29 04:30:28;;;;;;;14.80;12.45;;;7.30;99.90;;;;;;5052837;28;20176;-48
2021/05/29 04:32:54;;;;;;;29.33;13.90;;;7.40;99.90;;;;;;5056754;28;20223;-48
2021/05/29 04:35:21;;;;;;;16.83;12.37;;;7.50;99.90;;;;;;5054033;28;20520;-47
2021/05/29 04:37:47;;;;;;;17.23;12.87;;;7.50;99.90;;;;;;5053203;28;20196;-68
2021/05/29 04:40:14;;;;;;;16.40;12.70;;;7.50;99.90;;;;;;5052242;28;21333;-68
2021/05/29 04:42:40;;;;;;;17.83;14.43;;;7.60;99.90;;;;;;5050926;28;20477;-68
2021/05/29 04:45:07;;;;;;;15.70;13.10;;;7.70;99.90;;;;;;5051582;28;20813;-67
2021/05/29 04:47:33;;;;;;;17.40;13.00;;;7.80;99.90;;;;;;5051545;28;20671;-68
2021/05/29 04:49:58;;;;;;;18.73;14.43;;;7.90;99.90;;;;;;5051686;28;20569;-68
2021/05/29 04:52:24;;;;;;;18.97;14.10;;;7.90;99.90;;;;;;5050682;28;20639;-70
2021/05/29 04:54:50;;;;;;;18.13;13.90;;;7.90;99.90;;;;;;5051935;28;20193;-67
2021/05/29 04:57:16;;;;;;;19.13;14.63;;;8.00;99.90;;;;;;5052364;28;20585;-67
2021/05/29 04:59:42;;;;;;;18.20;13.73;;;8.10;99.90;;;;;;5043773;28;20584;-68
2021/05/29 05:02:07;;;;;;;16.57;13.90;;;8.20;99.90;;;;;;5050824;28;20467;-67
2021/05/29 05:04:33;;;;;;;19.50;15.10;;;8.30;99.90;;;;;;5051485;28;20188;-67
2021/05/29 05:06:58;;;;;;;17.73;13.80;;;8.30;99.90;;;;;;5050660;28;20686;-67
2021/05/29 05:09:24;;;;;;;19.87;15.80;;;8.30;99.90;;;;;;5051077;28;20181;-67
2021/05/29 05:11:50;;;;;;;20.17;15.23;;;8.50;99.90;;;;;;5050916;28;20678;-66
2021/05/29 05:14:16;;;;;;;19.97;16.70;;;8.60;99.90;;;;;;5050182;28;20652;-63
2021/05/29 05:16:41;;;;;;;19.80;15.77;;;8.70;99.90;;;;;;5051380;28;20427;-70
2021/05/29 05:19:07;;;;;;;20.00;15.90;;;8.80;99.90;;;;;;5050439;28;20545;-67
2021/05/29 05:21:33;;;;;;;17.63;14.37;;;8.90;99.90;;;;;;5051528;28;20193;-70
2021/05/29 05:23:58;;;;;;;19.13;16.13;;;9.00;99.90;;;;;;5050563;28;20188;-67
2021/05/29 05:26:25;;;;;;;19.50;15.07;;;9.10;99.90;;;;;;5051476;28;20420;-67
2021/05/29 05:28:51;;;;;;;17.50;15.33;;;9.10;99.90;;;;;;5051046;28;20208;-68
2021/05/29 05:31:16;;;;;;;18.20;16.00;;;9.20;99.90;;;;;;5050413;28;20444;-67
2021/05/29 05:33:44;;;;;;;16.53;14.80;;;9.30;99.90;;;;;;5050199;28;20641;-70
2021/05/29 05:36:12;;;;;;;17.90;14.10;;;9.30;99.90;;;;;;5048531;28;20190;-70
2021/05/29 05:38:39;;;;;;;16.47;13.73;;;9.50;99.90;;;;;;5050369;28;20918;-69
2021/05/29 05:41:06;;;;;;;16.00;13.10;;;9.50;99.90;;;;;;5049400;28;20436;-69
2021/05/29 05:43:32;;;;;;;16.43;14.60;;;9.80;99.90;;;;;;5049771;28;20468;-69
2021/05/29 05:45:58;;;;;;;14.90;13.23;;;9.90;99.90;;;;;;5050294;28;20471;-69
2021/05/29 05:48:24;;;;;;;15.63;13.93;;;10.00;99.90;;;;;;5050725;28;20914;-69
2021/05/29 05:50:57;;;;;;;14.80;13.03;;;10.10;99.90;;;;;;5049277;28;20554;-66
2021/05/29 05:53:25;;;;;;;14.00;12.50;;;10.20;99.90;;;;;;5050508;28;21050;-67
2021/05/29 05:55:59;;;;;;;14.97;12.80;;;10.10;99.90;;;;;;5049558;28;20540;-66
2021/05/29 05:58:25;;;;;;;15.80;13.53;;;10.20;99.90;;;;;;5053834;28;20451;-66
2021/05/29 06:00:51;;;;;;;15.90;13.67;;;10.30;99.90;;;;;;5049175;28;20493;-66
2021/05/29 06:03:19;;;;;;;14.50;12.73;;;10.40;99.90;;;;;;5050227;28;20864;-67
2021/05/29 06:05:44;;;;;;;16.20;13.33;;;10.40;99.90;;;;;;5050295;28;20268;-67
2021/05/29 06:08:10;;;;;;;16.23;13.60;;;10.50;99.90;;;;;;5044079;28;20856;-68
2021/05/29 06:10:36;;;;;;;15.23;13.30;;;10.50;99.90;;;;;;5040623;28;20186;-68
2021/05/29 06:13:01;;;;;;;14.33;12.50;;;10.50;99.90;;;;;;5042263;28;20196;-70
2021/05/29 06:20:55;;;;;;;14.40;12.80;;;10.90;99.90;;;;;;5039510;28;20435;-71
2021/05/29 06:23:21;;;;;;;15.40;13.67;;;11.00;99.90;;;;;;5038994;28;20468;-69
2021/05/29 06:25:46;;;;;;;14.80;13.23;;;11.30;99.90;;;;;;5041672;28;20190;-72
2021/05/29 06:28:12;;;;;;;13.60;12.23;;;11.50;99.90;;;;;;5030938;28;20288;-63
2021/05/29 06:30:38;;;;;;;16.90;13.20;;;11.60;99.90;;;;;;5039202;28;20658;-73
2021/05/29 06:33:04;;;;;;;13.73;11.90;;;11.80;99.90;;;;;;5040099;28;20793;-72
2021/05/29 06:35:30;;;;;;;14.90;12.33;;;11.90;99.90;;;;;;5038950;28;20190;-72
2021/05/29 06:37:56;;;;;;;13.30;12.00;;;12.00;99.90;;;;;;5040047;28;20437;-60
2021/05/29 06:40:21;;;;;;;12.70;11.23;;;12.30;99.90;;;;;;5038967;28;20198;-72
2021/05/29 06:42:47;;;;;;;12.60;11.30;;;12.50;99.90;;;;;;5039183;28;20661;-63
2021/05/29 06:45:13;;;;;;;13.50;12.10;;;12.50;99.30;;;;;;5042829;28;20762;-76
2021/05/29 06:47:39;;;;;;;12.40;11.10;;;12.60;98.00;;;;;;5044164;28;20182;-76
2021/05/29 06:50:06;;;;;;;12.70;11.30;;;12.70;84.90;;;;;;5048603;28;20432;-75
2021/05/29 06:52:33;;;;;;;12.27;11.07;;;12.80;90.30;;;;;;5045909;28;20677;-73
2021/05/29 07:00:11;;;;;;;13.33;11.93;;;13.30;71.00;;;;;;5048392;28;20476;-75
2021/05/29 07:02:38;;;;;;;13.00;11.60;;;13.20;61.20;;;;;;5048782;28;20473;-73
2021/05/29 07:05:05;;;;;;;12.03;10.80;;;13.30;67.60;;;;;;5046358;28;20455;-73
2021/05/29 07:07:31;;;;;;;12.20;10.90;;;13.50;56.90;;;;;;5049019;28;20423;-73
2021/05/29 07:09:58;;;;;;;12.60;11.30;;;13.60;53.80;;;;;;5048923;28;20415;-65
2021/05/29 07:12:24;;;;;;;12.57;11.13;;;13.50;53.30;;;;;;5049004;28;21705;-73
2021/05/29 07:14:49;;;;;;;12.03;10.83;;;13.60;47.60;;;;;;5048908;28;20443;-73
2021/05/29 07:17:15;;;;;;;12.03;10.83;;;13.60;48.60;;;;;;5048804;28;20774;-72
2021/05/29 07:19:41;;;;;;;11.70;10.50;;;13.80;35.70;;;;;;5049706;28;20193;-71
2021/05/29 07:22:06;;;;;;;12.50;11.20;;;14.00;28.00;;;;;;5043911;28;20241;-71
2021/05/29 07:24:33;;;;;;;12.90;11.60;;;14.00;20.70;;;;;;5048831;28;20196;-66
2021/05/29 07:26:59;;;;;;;11.60;10.40;;;13.90;31.00;;;;;;5044783;28;20182;-75
2021/05/29 07:29:26;;;;;;;13.60;10.87;;;13.90;28.50;;;;;;5042708;28;21110;-72
2021/05/29 07:31:52;;;;;;;10.10;9.10;;;13.80;30.00;;;;;;5047859;28;20773;-69
2021/05/29 07:34:17;;;;;;;10.40;9.40;;;13.80;25.20;;;;;;5047863;28;20431;-71
2021/05/29 07:36:43;;;;;;;12.43;9.03;;;13.90;25.80;;;;;;5047494;28;20178;-71
2021/05/29 07:39:09;;;;;;;10.47;8.87;;;13.90;20.80;;;;;;5046904;28;20528;-72
2021/05/29 07:41:35;;;;;;;9.57;8.67;;;13.80;20.30;;;;;;5047451;28;20242;-71
2021/05/29 07:44:02;;;;;;;9.40;8.50;;;13.80;23.50;;;;;;5046966;28;20213;-72
2021/05/29 07:46:29;;;;;;;9.37;8.47;;;13.80;27.70;;;;;;5047095;28;20408;-71
2021/05/29 07:48:54;;;;;;;10.37;9.33;;;13.80;26.80;;;;;;5048144;28;20553;-71
2021/05/29 07:51:20;;;;;;;9.90;8.90;;;13.70;30.90;;;;;;5048409;28;20433;-72
2021/05/29 07:53:46;;;;;;;9.70;8.70;;;13.70;22.40;;;;;;5047286;28;20230;-73
2021/05/29 07:56:15;;;;;;;9.80;8.60;;;13.70;27.40;;;;;;5049586;28;20653;-73
2021/05/29 07:58:42;;;;;;;9.73;8.77;;;13.70;35.60;;;;;;5052774;28;20411;-71
2021/05/29 08:01:12;;;;;;;12.80;9.00;;;13.80;26.30;;;;;;5048971;28;21154;-71
2021/05/29 08:03:38;;;;;;;9.43;8.63;;;13.90;32.60;;;;;;5047934;28;20466;-72
2021/05/29 08:06:08;;;;;;;10.50;9.53;;;14.00;26.30;;;;;;5049754;28;20409;-71
2021/05/29 08:08:34;;;;;;;10.30;9.30;;;14.20;19.80;;;;;;5049886;28;20519;-66
2021/05/29 08:11:01;;;;;;;9.07;8.17;;;14.20;3.50;;;;;;5049225;28;20980;-71
2021/05/29 08:13:27;;;;;;;9.50;8.50;;;14.20;16.40;;;;;;5049669;28;20268;-68
2021/05/29 08:15:53;;;;;;;9.30;8.40;;;14.40;21.10;;;;;;5042042;28;20444;-70
2021/05/29 08:18:20;;;;;;;9.40;8.60;;;14.80;1.00;;;;;;5049894;28;20427;-68
2021/05/29 08:20:48;;;;;;;10.13;9.13;;;15.00;1.00;;;;;;5050759;28;20920;-64
2021/05/29 08:23:14;;;;;;;9.67;8.67;;;15.20;1.00;;;;;;5050569;28;20460;-70
2021/05/29 08:25:40;;;;;;;9.87;9.03;;;15.30;1.00;;;;;;5049633;28;20931;-71
2021/05/29 08:28:05;;;;;;;10.27;9.17;;;15.50;1.00;;;;;;5049590;28;20469;-71
2021/05/29 08:30:31;;;;;;;9.33;8.53;;;15.40;1.00;;;;;;5049821;28;20511;-71
2021/05/29 08:32:57;;;;;;;8.70;7.90;;;15.40;1.00;;;;;;5048984;28;20186;-71
2021/05/29 08:35:22;;;;;;;9.30;8.40;;;15.60;1.00;;;;;;5049752;28;20459;-71
2021/05/29 08:37:48;;;;;;;8.30;7.53;;;15.90;1.00;;;;;;5049988;28;20466;-70
2021/05/29 08:40:16;;;;;;;8.40;7.60;;;15.90;1.00;;;;;;5046965;28;20219;-70
2021/05/29 08:42:43;;;;;;;8.53;7.73;;;15.70;1.00;;;;;;5050057;28;20641;-70
2021/05/29 08:45:10;;;;;;;8.33;7.47;;;15.60;1.00;;;;;;5049402;28;20432;-71
2021/05/29 08:47:36;;;;;;;8.37;7.60;;;15.50;1.00;;;;;;5049798;28;20534;-70
2021/05/29 08:50:03;;;;;;;8.37;7.50;;;15.60;1.00;;;;;;5049818;28;20517;-70
2021/05/29 08:52:35;;;;;;;18.13;7.93;;;15.80;1.00;;;;;;5050092;28;20251;-71
2021/05/29 08:55:01;;;;;;;8.87;8.17;;;16.00;1.00;;;;;;5049754;28;20473;-71
2021/05/29 08:57:26;;;;;;;8.70;8.00;;;16.30;1.00;;;;;;5050768;28;20435;-62
2021/05/29 08:59:52;;;;;;;7.53;6.83;;;16.30;1.00;;;;;;5047735;28;20193;-72
2021/05/29 09:02:17;;;;;;;7.97;7.27;;;16.60;1.00;;;;;;5048494;28;20217;-72
2021/05/29 09:05:05;;;;;;;8.30;7.70;;;16.90;1.00;;;;;;5048384;28;20166;-71
2021/05/29 09:07:30;;;;;;;9.23;8.33;;;16.90;1.00;;;;;;5059215;28;20273;-70
2021/05/29 09:10:16;;;;;;;8.03;7.43;;;17.00;1.00;;;;;;5050639;28;20980;-72
2021/05/29 09:13:05;;;;;;;9.33;8.53;;;17.20;1.00;;;;;;5052447;28;20210;-71
2021/05/29 09:15:59;;;;;;;8.03;7.40;;;17.20;1.00;;;;;;5051237;28;20845;-71
2021/05/29 09:18:49;;;;;;;8.17;7.57;;;17.30;1.00;;;;;;5052437;28;20442;-72
2021/05/29 09:21:19;;;;;;;8.87;8.07;;;17.70;1.00;;;;;;5051507;28;20455;-72
2021/05/29 09:23:49;;;;;;;8.63;7.67;;;18.10;99.90;;;;;;5051985;28;20802;-72
2021/05/29 09:26:15;;;;;;;7.90;7.30;;;18.50;99.90;;;;;;5052237;28;20459;-72
2021/05/29 09:28:43;;;;;;;7.33;6.83;;;18.60;1.00;;;;;;5051154;28;20432;-71
2021/05/29 09:31:14;;;;;;;8.37;7.67;;;19.00;99.90;;;;;;5051534;28;20269;-72
2021/05/29 09:33:44;;;;;;;7.90;7.30;;;19.40;1.00;;;;;;5051512;28;20427;-70
2021/05/29 09:36:12;;;;;;;7.40;6.80;;;19.90;99.90;;;;;;5051134;28;20427;-73
2021/05/29 09:38:47;;;;;;;6.90;6.30;;;20.10;93.20;;;;;;5051885;28;20407;-72
2021/05/29 09:41:30;;;;;;;8.13;7.43;;;20.50;91.00;;;;;;5050533;28;20431;-70
2021/05/29 09:43:59;;;;;;;7.03;6.43;;;21.00;90.00;;;;;;5045823;28;20459;-70
2021/05/29 09:46:26;;;;;;;7.30;6.70;;;20.90;86.70;;;;;;5044483;28;20424;-70
2021/05/29 09:48:59;;;;;;;7.83;7.20;;;20.30;86.80;;;;;;5049762;28;21204;-69
2021/05/29 09:51:32;;;;;;;7.90;7.30;;;19.80;90.70;;;;;;5051463;28;20903;-71
2021/05/29 09:54:06;;;;;;;7.43;6.93;;;19.70;87.70;;;;;;5051109;28;21020;-72
2021/05/29 09:56:41;;;;;;;7.70;7.10;;;20.00;80.50;;;;;;5044273;28;20436;-70
2021/05/29 09:59:08;;;;;;;8.60;7.80;;;20.20;83.30;;;;;;5051429;28;20438;-71
2021/05/29 10:01:48;;;;;;;7.47;6.87;;;20.60;84.10;;;;;;5050708;28;20441;-70
2021/05/29 10:07:15;;;;;;;8.40;7.70;;;21.60;82.70;;;;;;5040445;28;20470;-71
2021/05/29 10:09:41;;;;;;;8.07;7.47;;;22.20;78.80;;;;;;5050594;28;20462;-71
2021/05/29 10:12:08;;;;;;;7.80;7.20;;;22.10;76.60;;;;;;5049833;28;20433;-71
2021/05/29 10:14:34;;;;;;;7.90;7.30;;;21.90;76.00;;;;;;5037793;28;20432;-71
2021/05/29 10:17:05;;;;;;;6.90;6.40;;;21.80;76.90;;;;;;5050913;28;20798;-71
2021/05/29 10:19:32;;;;;;;9.00;8.30;;;22.30;72.80;;;;;;5050693;28;20427;-71
2021/05/29 10:22:04;;;;;;;8.07;7.40;;;22.20;73.90;;;;;;5050147;28;20915;-71
2021/05/29 10:24:29;;;;;;;7.20;6.70;;;22.00;71.20;;;;;;5050601;28;20474;-72
2021/05/29 10:26:55;;;;;;;7.00;6.50;;;21.60;71.90;;;;;;5050086;28;20436;-61
2021/05/29 10:29:26;;;;;;;8.30;7.60;;;21.10;72.90;;;;;;5049954;28;20582;-71
2021/05/29 10:32:11;;;;;;;8.50;7.80;;;20.30;73.70;;;;;;5049484;28;20432;-70
2021/05/29 10:34:58;;;;;;;7.93;7.27;;;19.90;83.50;;;;;;5050782;28;20470;-71
2021/05/29 10:37:35;;;;;;;8.27;7.50;;;19.80;79.70;;;;;;5050039;28;20439;-71
2021/05/29 10:40:16;;;;;;;7.33;6.73;;;19.70;81.60;;;;;;5050431;28;20826;-71
2021/05/29 10:42:41;;;;;;;7.73;7.13;;;20.30;83.00;;;;;;5051757;28;20513;-71
2021/05/29 10:45:18;;;;;;;7.93;7.33;;;20.90;79.10;;;;;;5050474;28;20416;-70
2021/05/29 10:48:05;;;;;;;8.10;7.37;;;21.30;72.30;;;;;;5049753;28;20644;-71
2021/05/29 10:53:43;;;;;;;7.00;6.50;;;22.50;63.40;;;;;;5048755;28;20476;-71
2021/05/29 10:56:21;;;;;;;6.37;5.80;;;23.60;63.00;;;;;;5049886;28;20455;-70
2021/05/29 10:59:18;;;;;;;6.40;6.00;;;23.60;58.20;;;;;;5051397;28;20482;-71
2021/05/29 11:01:48;;;;;;;7.97;7.10;;;23.00;57.00;;;;;;5050184;28;20529;-73
2021/05/29 11:06:47;;;;;;;7.60;6.90;;;22.70;58.60;;;;;;5049186;28;20426;-72
2021/05/29 11:09:14;;;;;;;8.40;7.73;;;22.90;59.20;;;;;;5042688;28;20466;-71
2021/05/29 11:11:47;;;;;;;6.90;6.40;;;22.10;60.30;;;;;;5049949;28;20995;-68
2021/05/29 11:14:18;;;;;;;7.50;6.90;;;21.70;1.00;;;;;;5048011;28;20428;-72
2021/05/29 11:16:47;;;;;;;7.47;6.07;;;20.90;1.00;;;;;;5049887;28;20458;-72
2021/05/29 11:19:26;;;;;;;5.50;5.10;;;19.80;1.00;;;;;;5048783;28;20427;-72
2021/05/29 11:22:18;;;;;;;5.90;5.50;;;18.90;1.00;;;;;;5048969;28;20428;-72
2021/05/29 11:24:52;;;;;;;6.10;5.70;;;18.40;1.00;;;;;;5040677;28;20432;-72
2021/05/29 11:27:18;;;;;;;5.47;5.07;;;18.10;75.30;;;;;;5048578;28;20412;-73
2021/05/29 11:29:53;;;;;;;5.03;4.70;;;18.00;78.70;;;;;;5050032;28;20424;-73
2021/05/29 11:32:47;;;;;;;4.47;4.17;;;18.10;81.90;;;;;;5048166;28;20197;-67
2021/05/29 11:35:27;;;;;;;4.27;3.97;;;18.80;81.60;;;;;;5048796;28;20507;-74
2021/05/29 11:38:13;;;;;;;4.97;4.57;;;20.10;74.80;;;;;;5037233;28;20447;-73
2021/05/29 11:41:11;;;;;;;5.23;4.83;;;20.80;68.20;;;;;;5047505;28;20501;-74
2021/05/29 11:43:54;;;;;;;4.70;4.40;;;20.70;68.50;;;;;;5049203;28;20471;-74
2021/05/29 11:46:20;;;;;;;5.40;5.10;;;20.30;69.20;;;;;;5048688;28;20435;-74
2021/05/29 11:48:48;;;;;;;5.00;4.70;;;20.00;72.20;;;;;;5049380;28;20452;-73
2021/05/29 11:51:18;;;;;;;5.00;4.57;;;19.70;76.40;;;;;;5049200;28;20448;-74
2021/05/29 11:53:55;;;;;;;5.10;4.80;;;19.60;72.80;;;;;;5048774;28;20951;-73
2021/05/29 11:56:40;;;;;;;4.80;4.50;;;19.40;75.20;;;;;;5048635;28;20468;-74
2021/05/29 11:59:09;;;;;;;4.93;4.63;;;19.30;81.50;;;;;;5049138;28;20515;-74
2021/05/29 12:01:37;;;;;;;4.80;4.50;;;18.90;76.10;;;;;;5046241;28;20456;-72
2021/05/29 12:04:08;;;;;;;4.60;4.30;;;18.80;84.80;;;;;;5049020;28;20496;-73
2021/05/29 12:06:41;;;;;;;4.40;4.10;;;18.90;77.20;;;;;;5048356;28;20572;-61
2021/05/29 12:09:12;;;;;;;4.10;3.90;;;18.60;77.00;;;;;;5036218;28;20778;-73
2021/05/29 12:11:41;;;;;;;4.70;4.40;;;18.60;75.20;;;;;;5049068;28;20439;-73
2021/05/29 12:14:21;;;;;;;4.20;4.00;;;18.20;80.30;;;;;;5048816;28;20428;-61
2021/05/29 12:16:56;;;;;;;4.10;3.90;;;18.30;79.10;;;;;;5042281;28;20431;-73
2021/05/29 12:19:38;;;;;;;3.50;3.30;;;18.50;77.70;;;;;;5049064;28;20432;-73
2021/05/29 12:22:19;;;;;;;3.60;3.33;;;18.40;70.80;;;;;;5052724;28;20420;-73
2021/05/29 12:25:01;;;;;;;3.80;3.60;;;18.50;75.40;;;;;;5047128;28;20454;-74
2021/05/29 12:27:32;;;;;;;3.60;3.40;;;18.70;73.70;;;;;;5048781;28;20522;-75
2021/05/29 12:29:59;;;;;;;3.97;3.73;;;19.30;73.30;;;;;;5048883;28;20428;-74
2021/05/29 12:32:37;;;;;;;4.00;3.70;;;20.00;67.70;;;;;;5049086;28;20427;-74
2021/05/29 12:35:05;;;;;;;3.70;3.50;;;21.20;62.20;;;;;;5045221;28;20562;-73
2021/05/29 12:37:31;;;;;;;3.50;3.30;;;22.00;59.10;;;;;;5050803;28;20439;-74
2021/05/29 12:40:02;;;;;;;3.70;3.50;;;23.20;55.30;;;;;;5048326;28;20460;-74
2021/05/29 12:42:34;;;;;;;3.90;3.70;;;23.60;52.60;;;;;;5047671;28;20504;-66
2021/05/29 12:45:18;;;;;;;4.37;4.07;;;24.30;54.30;;;;;;5047380;28;20439;-74
2021/05/29 12:48:11;;;;;;;4.80;4.50;;;25.50;50.00;;;;;;5045680;28;20443;-74
2021/05/29 12:50:39;;;;;;;5.90;5.37;;;26.50;49.70;;;;;;5038144;28;21391;-76
2021/05/29 12:53:15;;;;;;;9.50;8.77;;;27.00;41.20;;;;;;5052538;28;20474;-76
2021/05/29 12:55:42;;;;;;;6.17;5.57;;;25.40;42.70;;;;;;5039507;28;20528;-74
2021/05/29 12:58:17;;;;;;;8.40;7.57;;;24.30;53.00;;;;;;5052305;28;20446;-78
2021/05/29 13:00:57;;;;;;;7.07;6.50;;;22.40;59.50;;;;;;5046253;28;20594;-78
2021/05/29 13:09:20;;;;;;;7.30;6.80;;;18.50;99.90;;;;;;5051946;28;20983;-75
2021/05/29 13:11:46;;;;;;;6.30;5.80;;;17.50;1.00;;;;;;5052276;28;20458;-74
2021/05/29 13:14:14;;;;;;;6.00;5.60;;;17.10;1.00;;;;;;5048704;28;20443;-68